Time;durP1;ratioP1;P1;durP2;ratioP2;P2;SDS_P1;SDS_P2;PMS_P1;PMS_P2;Temp;Humidity;BMP_temperature;BMP_pressure;BME280_temperature;BME280_humidity;BME280_pressure;Samples;Min_cycle;Max_cycle;Signal;HPM_P1;HPM_P2
2022/12/06 00:01:10;;;;;;;;;;;;;;;;;;5105048;28;19912;-48
2022/12/06 00:03:36;;;;;;;;;;;;;;;;;;5100078;28;19957;-48
2022/12/06 00:06:02;;;;;;;;;;;;;;;;;;5095767;28;19951;-48
2022/12/06 00:08:28;;;;;;;;;;;;;;;;;;5096515;28;19920;-48
2022/12/06 00:10:54;;;;;;;;;;;;;;;;;;5133877;22;19932;-51
2022/12/06 00:13:20;;;;;;;;;;;;;;;;;;5094788;28;19931;-50
2022/12/06 00:15:46;;;;;;;;;;;;;;;;;;5094999;28;19926;-53
2022/12/06 00:18:12;;;;;;;;;;;;;;;;;;5076931;28;19912;-51
2022/12/06 00:20:38;;;;;;;;;;;;;;;;;;5094911;28;19912;-52
2022/12/06 00:23:04;;;;;;;;;;;;;;;;;;5075671;28;19912;-54
2022/12/06 00:25:30;;;;;;;;;;;;;;;;;;5079854;28;19935;-54
2022/12/06 00:27:56;;;;;;;;;;;;;;;;;;5090090;28;20402;-54
2022/12/06 00:30:22;;;;;;;;;;;;;;;;;;5092253;28;19924;-53
2022/12/06 00:32:48;;;;;;;;;;;;;;;;;;5074701;28;19923;-50
2022/12/06 00:35:13;;;;;;;;;;;;;;;;;;5075067;28;19913;-52
2022/12/06 00:37:39;;;;;;;;;;;;;;;;;;5081903;28;20354;-50
2022/12/06 00:40:05;;;;;;;;;;;;;;;;;;5060200;28;20402;-51
2022/12/06 00:42:31;;;;;;;;;;;;;;;;;;5076422;28;19974;-52
2022/12/06 00:44:57;;;;;;;;;;;;;;;;;;5095207;28;20064;-51
2022/12/06 00:47:23;;;;;;;;;;;;;;;;;;5092927;28;20372;-52
2022/12/06 00:49:49;;;;;;;;;;;;;;;;;;5094501;28;19912;-53
2022/12/06 00:52:15;;;;;;;;;;;;;;;;;;5094527;28;19957;-50
2022/12/06 00:54:41;;;;;;;;;;;;;;;;;;5075627;28;19912;-50
2022/12/06 00:57:07;;;;;;;;;;;;;;;;;;5089935;28;20283;-53
2022/12/06 00:59:33;;;;;;;;;;;;;;;;;;5083799;28;20401;-52
2022/12/06 01:01:59;;;;;;;;;;;;;;;;;;5087310;28;19971;-52
2022/12/06 01:04:24;;;;;;;;;;;;;;;;;;5074397;28;19950;-52
2022/12/06 01:06:50;;;;;;;;;;;;;;;;;;5084174;28;19912;-51
2022/12/06 01:09:16;;;;;;;;;;;;;;;;;;5075389;28;19912;-50
2022/12/06 01:11:42;;;;;;;;;;;;;;;;;;5074182;28;19939;-52
2022/12/06 01:14:08;;;;;;;;;;;;;;;;;;5084943;28;20257;-51
2022/12/06 01:16:34;;;;;;;;;;;;;;;;;;5091476;28;19920;-51
2022/12/06 01:19:00;;;;;;;;;;;;;;;;;;5094510;28;19908;-51
2022/12/06 01:21:26;;;;;;;;;;;;;;;;;;5094116;28;19965;-51
2022/12/06 01:23:55;;;;;;;;;;;;;;;;;;5092384;28;19912;-50
2022/12/06 01:26:21;;;;;;;;;;;;;;;;;;5084566;28;19920;-52
2022/12/06 01:28:50;;;;;;;;;;;;;;;;;;5081572;28;19912;-50
2022/12/06 01:31:16;;;;;;;;;;;;;;;;;;5083454;28;20330;-51
2022/12/06 01:33:42;;;;;;;;;;;;;;;;;;5093460;28;19916;-53
2022/12/06 01:36:08;;;;;;;;;;;;;;;;;;5087791;28;19912;-51
2022/12/06 01:38:34;;;;;;;;;;;;;;;;;;5081917;28;19920;-54
2022/12/06 01:41:00;;;;;;;;;;;;;;;;;;5092607;28;20046;-51
2022/12/06 01:43:26;;;;;;;;;;;;;;;;;;5092551;28;20390;-51
2022/12/06 01:45:51;;;;;;;;;;;;;;;;;;5076611;28;19920;-49
2022/12/06 01:48:17;;;;;;;;;;;;;;;;;;5073522;28;19913;-53
2022/12/06 01:50:43;;;;;;;;;;;;;;;;;;5063165;28;19923;-51
2022/12/06 01:53:09;;;;;;;;;;;;;;;;;;5082035;28;19920;-52
2022/12/06 01:55:35;;;;;;;;;;;;;;;;;;5074623;28;20339;-52
2022/12/06 01:58:01;;;;;;;;;;;;;;;;;;5073327;28;20391;-50
2022/12/06 02:00:27;;;;;;;;;;;;;;;;;;5074261;28;19970;-53
2022/12/06 02:02:53;;;;;;;;;;;;;;;;;;5084400;28;19913;-52
2022/12/06 02:05:19;;;;;;;;;;;;;;;;;;5072779;28;20003;-52
2022/12/06 02:07:45;;;;;;;;;;;;;;;;;;5088724;28;19914;-51
2022/12/06 02:10:11;;;;;;;;;;;;;;;;;;5093258;28;20379;-50
2022/12/06 02:12:37;;;;;;;;;;;;;;;;;;5093051;28;20023;-51
2022/12/06 02:15:03;;;;;;;;;;;;;;;;;;5093311;28;19912;-51
2022/12/06 02:17:29;;;;;;;;;;;;;;;;;;5093319;28;19919;-51
2022/12/06 02:19:55;;;;;;;;;;;;;;;;;;5077283;28;19909;-50
2022/12/06 02:22:21;;;;;;;;;;;;;;;;;;5072932;28;20383;-51
2022/12/06 02:24:47;;;;;;;;;;;;;;;;;;5072900;28;20431;-50
2022/12/06 02:27:12;;;;;;;;;;;;;;;;;;5072726;28;20295;-51
2022/12/06 02:29:38;;;;;;;;;;;;;;;;;;5072865;28;20384;-54
2022/12/06 02:32:04;;;;;;;;;;;;;;;;;;5076680;28;20360;-52
2022/12/06 02:34:30;;;;;;;;;;;;;;;;;;5074932;28;19931;-50
2022/12/06 02:36:56;;;;;;;;;;;;;;;;;;5089351;28;20375;-51
2022/12/06 02:39:22;;;;;;;;;;;;;;;;;;5083053;28;19956;-53
2022/12/06 02:41:48;;;;;;;;;;;;;;;;;;5074524;28;19959;-51
2022/12/06 02:44:14;;;;;;;;;;;;;;;;;;5054662;28;19991;-51
2022/12/06 02:46:42;;;;;;;;;;;;;;;;;;5056265;28;20036;-51
2022/12/06 02:49:08;;;;;;;;;;;;;;;;;;5092663;28;19908;-50
2022/12/06 02:51:34;;;;;;;;;;;;;;;;;;5074822;28;19924;-50
2022/12/06 02:54:00;;;;;;;;;;;;;;;;;;5091204;28;19913;-53
2022/12/06 02:56:26;;;;;;;;;;;;;;;;;;5081179;28;19938;-51
2022/12/06 02:58:52;;;;;;;;;;;;;;;;;;5075152;28;19913;-52
2022/12/06 03:01:17;;;;;;;;;;;;;;;;;;5082285;28;20024;-51
2022/12/06 03:03:43;;;;;;;;;;;;;;;;;;5079471;28;20050;-52
2022/12/06 03:06:09;;;;;;;;;;;;;;;;;;5078827;28;19915;-51
2022/12/06 03:08:35;;;;;;;;;;;;;;;;;;5072049;28;19961;-50
2022/12/06 03:11:01;;;;;;;;;;;;;;;;;;5092009;28;19916;-49
2022/12/06 03:13:27;;;;;;;;;;;;;;;;;;5073120;28;19921;-51
2022/12/06 03:15:53;;;;;;;;;;;;;;;;;;5090135;28;19966;-50
2022/12/06 03:18:19;;;;;;;;;;;;;;;;;;5080684;28;20012;-50
2022/12/06 03:20:45;;;;;;;;;;;;;;;;;;5072012;28;20027;-52
2022/12/06 03:23:11;;;;;;;;;;;;;;;;;;5084198;28;19918;-50
2022/12/06 03:25:37;;;;;;;;;;;;;;;;;;5091802;28;20007;-51
2022/12/06 03:28:03;;;;;;;;;;;;;;;;;;5065530;28;19912;-53
2022/12/06 03:30:29;;;;;;;;;;;;;;;;;;5074934;28;20050;-53
2022/12/06 03:32:55;;;;;;;;;;;;;;;;;;5090492;28;20519;-51
2022/12/06 03:35:21;;;;;;;;;;;;;;;;;;5073921;28;19927;-51
2022/12/06 03:37:46;;;;;;;;;;;;;;;;;;5067231;28;19960;-51
2022/12/06 03:40:12;;;;;;;;;;;;;;;;;;5073002;28;19948;-50
2022/12/06 03:42:39;;;;;;;;;;;;;;;;;;5079762;28;19913;-51
2022/12/06 03:45:04;;;;;;;;;;;;;;;;;;5071834;28;20003;-50
2022/12/06 03:47:30;;;;;;;;;;;;;;;;;;5088112;28;20009;-51
2022/12/06 03:49:56;;;;;;;;;;;;;;;;;;5071608;28;19924;-51
2022/12/06 03:52:22;;;;;;;;;;;;;;;;;;5075874;28;19913;-50
2022/12/06 03:54:48;;;;;;;;;;;;;;;;;;5083713;28;19946;-49
2022/12/06 03:57:14;;;;;;;;;;;;;;;;;;5074123;28;19919;-50
2022/12/06 03:59:40;;;;;;;;;;;;;;;;;;5078334;28;20342;-52
2022/12/06 04:02:06;;;;;;;;;;;;;;;;;;5088001;28;20007;-49
2022/12/06 04:04:32;;;;;;;;;;;;;;;;;;5089579;28;19912;-50
2022/12/06 04:06:58;;;;;;;;;;;;;;;;;;5090542;28;19912;-49
2022/12/06 04:14:53;;;;;;;;;;;;;;;;;;5080763;28;19923;-51
2022/12/06 04:20:03;;;;;;;;;;;;;;;;;;5071433;28;19915;-53
2022/12/06 04:25:14;;;;;;;;;;;;;;;;;;5091941;28;19926;-50
2022/12/06 04:38:39;;;;;;;;;;;;;;;;;;5084103;28;20335;-50
2022/12/06 04:41:05;;;;;;;;;;;;;;;;;;5080638;28;19912;-50
2022/12/06 04:43:43;;;;;;;;;;;;;;;;;;5077460;28;19908;-51
2022/12/06 04:46:09;;;;;;;;;;;;;;;;;;5075027;28;19916;-51
2022/12/06 04:48:35;;;;;;;;;;;;;;;;;;5056670;28;19908;-52
2022/12/06 04:51:01;;;;;;;;;;;;;;;;;;5063214;28;19919;-50
2022/12/06 04:53:27;;;;;;;;;;;;;;;;;;5093546;28;20292;-51
2022/12/06 04:55:53;;;;;;;;;;;;;;;;;;5094829;28;19915;-50
2022/12/06 04:58:19;;;;;;;;;;;;;;;;;;5094763;28;19908;-50
2022/12/06 05:00:45;;;;;;;;;;;;;;;;;;5091642;28;19915;-50
2022/12/06 05:03:11;;;;;;;;;;;;;;;;;;5078788;28;20289;-50
2022/12/06 05:05:37;;;;;;;;;;;;;;;;;;5074398;28;19908;-50
2022/12/06 05:08:03;;;;;;;;;;;;;;;;;;5074751;28;19947;-50
2022/12/06 05:10:29;;;;;;;;;;;;;;;;;;5074395;28;20434;-52
2022/12/06 05:12:54;;;;;;;;;;;;;;;;;;5081132;28;20365;-51
2022/12/06 05:15:20;;;;;;;;;;;;;;;;;;5074532;28;20288;-55
2022/12/06 05:17:46;;;;;;;;;;;;;;;;;;5074366;28;19958;-52
2022/12/06 05:20:15;;;;;;;;;;;;;;;;;;5074212;28;19909;-51
2022/12/06 05:22:41;;;;;;;;;;;;;;;;;;5074304;28;19909;-50
2022/12/06 05:25:07;;;;;;;;;;;;;;;;;;5074442;28;19931;-51
2022/12/06 05:27:33;;;;;;;;;;;;;;;;;;5074435;28;19913;-50
2022/12/06 05:29:59;;;;;;;;;;;;;;;;;;5074197;28;19908;-50
2022/12/06 05:32:25;;;;;;;;;;;;;;;;;;5073923;28;20357;-51
2022/12/06 05:34:51;;;;;;;;;;;;;;;;;;5073885;28;19940;-51
2022/12/06 05:37:17;;;;;;;;;;;;;;;;;;5074003;28;19918;-51
2022/12/06 05:39:43;;;;;;;;;;;;;;;;;;5073781;28;19915;-53
2022/12/06 05:42:09;;;;;;;;;;;;;;;;;;5054848;28;19954;-53
2022/12/06 05:44:35;;;;;;;;;;;;;;;;;;5073821;28;19909;-51
2022/12/06 05:47:01;;;;;;;;;;;;;;;;;;5073722;28;20357;-51
2022/12/06 05:49:26;;;;;;;;;;;;;;;;;;5073480;28;19908;-49
2022/12/06 05:51:52;;;;;;;;;;;;;;;;;;5073606;28;19915;-50
2022/12/06 05:54:19;;;;;;;;;;;;;;;;;;5073568;28;19912;-50
2022/12/06 05:56:45;;;;;;;;;;;;;;;;;;5073572;28;19908;-51
2022/12/06 05:59:11;;;;;;;;;;;;;;;;;;5073414;28;19915;-50
2022/12/06 06:01:37;;;;;;;;;;;;;;;;;;5073362;28;19909;-49
2022/12/06 06:04:02;;;;;;;;;;;;;;;;;;5073340;28;20008;-52
2022/12/06 06:06:28;;;;;;;;;;;;;;;;;;5073265;28;20440;-51
2022/12/06 06:08:54;;;;;;;;;;;;;;;;;;5073150;28;19962;-52
2022/12/06 06:11:20;;;;;;;;;;;;;;;;;;5055683;28;19924;-50
2022/12/06 06:13:46;;;;;;;;;;;;;;;;;;5055263;28;19919;-50
2022/12/06 06:16:12;;;;;;;;;;;;;;;;;;5073142;28;19916;-51
2022/12/06 06:18:38;;;;;;;;;;;;;;;;;;5072764;28;19957;-51
2022/12/06 06:21:04;;;;;;;;;;;;;;;;;;5073109;28;19912;-51
2022/12/06 06:23:30;;;;;;;;;;;;;;;;;;5072989;28;20051;-50
2022/12/06 06:25:56;;;;;;;;;;;;;;;;;;5073216;28;20342;-50
2022/12/06 06:28:22;;;;;;;;;;;;;;;;;;5072887;28;20353;-50
2022/12/06 06:30:47;;;;;;;;;;;;;;;;;;5072823;28;19908;-50
2022/12/06 06:33:13;;;;;;;;;;;;;;;;;;5072636;28;19921;-50
2022/12/06 06:35:39;;;;;;;;;;;;;;;;;;5072895;28;19908;-51
2022/12/06 06:38:05;;;;;;;;;;;;;;;;;;5072783;28;19912;-50
2022/12/06 06:40:31;;;;;;;;;;;;;;;;;;5072944;28;20426;-55
2022/12/06 06:43:16;;;;;;;;;;;;;;;;;;5072943;28;19908;-53
2022/12/06 06:45:42;;;;;;;;;;;;;;;;;;5072525;28;19947;-53
2022/12/06 06:48:08;;;;;;;;;;;;;;;;;;5072517;28;19951;-50
2022/12/06 06:50:34;;;;;;;;;;;;;;;;;;5072504;28;20360;-53
2022/12/06 06:53:00;;;;;;;;;;;;;;;;;;5072072;28;19982;-50
2022/12/06 06:55:26;;;;;;;;;;;;;;;;;;5072504;28;19922;-51
2022/12/06 06:57:52;;;;;;;;;;;;;;;;;;5072499;28;19998;-52
2022/12/06 07:00:17;;;;;;;;;;;;;;;;;;5072161;28;20426;-52
2022/12/06 07:02:43;;;;;;;;;;;;;;;;;;5072372;28;19958;-52
2022/12/06 07:05:09;;;;;;;;;;;;;;;;;;5072369;28;20015;-50
2022/12/06 07:07:35;;;;;;;;;;;;;;;;;;5074888;28;19916;-53
2022/12/06 07:10:01;;;;;;;;;;;;;;;;;;5081943;28;20389;-50
2022/12/06 07:12:27;;;;;;;;;;;;;;;;;;5074426;28;20368;-50
2022/12/06 07:14:53;;;;;;;;;;;;;;;;;;5092391;28;19915;-51
2022/12/06 07:17:19;;;;;;;;;;;;;;;;;;5074349;28;20002;-50
2022/12/06 07:19:46;;;;;;;;;;;;;;;;;;5092360;28;19975;-49
2022/12/06 07:22:12;;;;;;;;;;;;;;;;;;5092334;28;19954;-50
2022/12/06 07:24:38;;;;;;;;;;;;;;;;;;5092389;28;19948;-51
2022/12/06 07:27:04;;;;;;;;;;;;;;;;;;5092332;28;19952;-54
2022/12/06 07:29:30;;;;;;;;;;;;;;;;;;5092032;28;20431;-50
2022/12/06 07:31:56;;;;;;;;;;;;;;;;;;5074159;28;19916;-50
2022/12/06 07:34:22;;;;;;;;;;;;;;;;;;5079252;28;20369;-52
2022/12/06 07:36:48;;;;;;;;;;;;;;;;;;5072065;28;19959;-50
2022/12/06 07:39:14;;;;;;;;;;;;;;;;;;5071931;28;20579;-51
2022/12/06 07:47:09;;;;;;;;;;;;;;;;;;5072082;28;19915;-53
2022/12/06 07:49:35;;;;;;;;;;;;;;;;;;5071838;28;20308;-52
2022/12/06 07:52:01;;;;;;;;;;;;;;;;;;5071954;28;20003;-52
2022/12/06 07:54:27;;;;;;;;;;;;;;;;;;5071777;28;20094;-51
2022/12/06 07:56:55;;;;;;;;;;;;;;;;;;5053951;28;19909;-50
2022/12/06 07:59:21;;;;;;;;;;;;;;;;;;5071652;28;19911;-52
2022/12/06 08:01:47;;;;;;;;;;;;;;;;;;5053820;28;19909;-52
2022/12/06 08:04:12;;;;;;;;;;;;;;;;;;5092052;28;19918;-53
2022/12/06 08:06:38;;;;;;;;;;;;;;;;;;5095977;28;19908;-51
2022/12/06 08:09:04;;;;;;;;;;;;;;;;;;5095726;28;19916;-50
2022/12/06 08:11:30;;;;;;;;;;;;;;;;;;5095737;28;19969;-50
2022/12/06 08:13:56;;;;;;;;;;;;;;;;;;5095725;28;19969;-51
2022/12/06 08:16:22;;;;;;;;;;;;;;;;;;5095855;28;19908;-52
2022/12/06 08:18:48;;;;;;;;;;;;;;;;;;5095559;28;19908;-51
2022/12/06 08:21:15;;;;;;;;;;;;;;;;;;5095592;28;19911;-55
2022/12/06 08:23:41;;;;;;;;;;;;;;;;;;5095603;28;19916;-52
2022/12/06 08:26:07;;;;;;;;;;;;;;;;;;5095610;28;19908;-51
2022/12/06 08:28:33;;;;;;;;;;;;;;;;;;5095475;28;19943;-53
2022/12/06 08:30:59;;;;;;;;;;;;;;;;;;5077254;28;19911;-53
2022/12/06 08:33:27;;;;;;;;;;;;;;;;;;5095461;28;19913;-51
2022/12/06 08:35:52;;;;;;;;;;;;;;;;;;5087669;28;19935;-52
2022/12/06 08:38:18;;;;;;;;;;;;;;;;;;5074993;28;20349;-52
2022/12/06 08:40:44;;;;;;;;;;;;;;;;;;5075014;28;19913;-50
2022/12/06 08:43:10;;;;;;;;;;;;;;;;;;5074952;28;19909;-51
2022/12/06 08:45:36;;;;;;;;;;;;;;;;;;5074938;28;20003;-52
2022/12/06 08:48:02;;;;;;;;;;;;;;;;;;5075001;28;19908;-51
2022/12/06 08:50:28;;;;;;;;;;;;;;;;;;5056755;28;19908;-50
2022/12/06 08:52:54;;;;;;;;;;;;;;;;;;5074713;28;19916;-54
2022/12/06 08:55:20;;;;;;;;;;;;;;;;;;5056804;28;20364;-51
2022/12/06 08:57:46;;;;;;;;;;;;;;;;;;5074767;28;19904;-54
2022/12/06 09:00:12;;;;;;;;;;;;;;;;;;5056723;28;19909;-53
2022/12/06 09:02:37;;;;;;;;;;;;;;;;;;5064450;28;19912;-54
2022/12/06 09:05:03;;;;;;;;;;;;;;;;;;5066940;28;20313;-53
2022/12/06 09:07:29;;;;;;;;;;;;;;;;;;5079696;28;19923;-52
2022/12/06 09:09:55;;;;;;;;;;;;;;;;;;5074418;28;19909;-52
2022/12/06 09:12:21;;;;;;;;;;;;;;;;;;5056351;28;20011;-50
2022/12/06 09:14:47;;;;;;;;;;;;;;;;;;5074139;28;19991;-50
2022/12/06 09:17:13;;;;;;;;;;;;;;;;;;5074473;28;19995;-50
2022/12/06 09:19:39;;;;;;;;;;;;;;;;;;5074117;28;20423;-51
2022/12/06 09:22:05;;;;;;;;;;;;;;;;;;5074268;28;19956;-50
2022/12/06 09:24:31;;;;;;;;;;;;;;;;;;5074373;28;19908;-51
2022/12/06 09:26:57;;;;;;;;;;;;;;;;;;5074235;28;19912;-51
2022/12/06 09:29:23;;;;;;;;;;;;;;;;;;5074097;28;19908;-50
2022/12/06 09:31:49;;;;;;;;;;;;;;;;;;5074154;28;19931;-51
2022/12/06 09:34:15;;;;;;;;;;;;;;;;;;5073872;28;20360;-50
2022/12/06 09:36:41;;;;;;;;;;;;;;;;;;5074008;28;19912;-56
2022/12/06 09:39:07;;;;;;;;;;;;;;;;;;5073812;28;20311;-52
2022/12/06 09:41:33;;;;;;;;;;;;;;;;;;5073761;28;19951;-50
2022/12/06 09:43:59;;;;;;;;;;;;;;;;;;5082350;28;19912;-52
2022/12/06 09:46:25;;;;;;;;;;;;;;;;;;5094010;28;19909;-51
2022/12/06 09:48:51;;;;;;;;;;;;;;;;;;5093833;28;19908;-52
2022/12/06 09:51:17;;;;;;;;;;;;;;;;;;5093847;28;19915;-51
2022/12/06 09:53:43;;;;;;;;;;;;;;;;;;5075596;28;20006;-51
2022/12/06 09:56:09;;;;;;;;;;;;;;;;;;5075573;28;19959;-50
2022/12/06 09:58:35;;;;;;;;;;;;;;;;;;5075452;28;19955;-50
2022/12/06 10:01:00;;;;;;;;;;;;;;;;;;5093724;28;20057;-51
2022/12/06 10:03:26;;;;;;;;;;;;;;;;;;5093480;28;20003;-51
2022/12/06 10:05:54;;;;;;;;;;;;;;;;;;5075334;28;19951;-50
2022/12/06 10:08:20;;;;;;;;;;;;;;;;;;5093452;28;19908;-51
2022/12/06 10:10:46;;;;;;;;;;;;;;;;;;5093457;28;19930;-51
2022/12/06 10:13:12;;;;;;;;;;;;;;;;;;5093567;28;19912;-51
2022/12/06 10:15:37;;;;;;;;;;;;;;;;;;5075211;28;19987;-54
2022/12/06 10:18:03;;;;;;;;;;;;;;;;;;5093228;28;20000;-52
2022/12/06 10:20:29;;;;;;;;;;;;;;;;;;5093250;28;20332;-52
2022/12/06 10:22:55;;;;;;;;;;;;;;;;;;5093257;28;20361;-51
2022/12/06 10:25:22;;;;;;;;;;;;;;;;;;5093214;28;19961;-53
2022/12/06 10:27:49;;;;;;;;;;;;;;;;;;5092587;28;19908;-53
2022/12/06 10:30:15;;;;;;;;;;;;;;;;;;5093007;28;19912;-52
2022/12/06 10:32:40;;;;;;;;;;;;;;;;;;5092863;28;20019;-51
2022/12/06 10:35:06;;;;;;;;;;;;;;;;;;5092979;28;19908;-52
2022/12/06 10:37:32;;;;;;;;;;;;;;;;;;5092936;28;20368;-51
2022/12/06 10:39:58;;;;;;;;;;;;;;;;;;5092805;28;19908;-53
2022/12/06 10:42:24;;;;;;;;;;;;;;;;;;5092782;28;19912;-50
2022/12/06 10:44:50;;;;;;;;;;;;;;;;;;5092892;28;19916;-53
2022/12/06 10:47:16;;;;;;;;;;;;;;;;;;5092724;28;20478;-51
2022/12/06 10:49:42;;;;;;;;;;;;;;;;;;5092650;28;19908;-50
2022/12/06 10:52:08;;;;;;;;;;;;;;;;;;5074549;28;19908;-51
2022/12/06 10:54:34;;;;;;;;;;;;;;;;;;5092640;28;20376;-50
2022/12/06 10:57:00;;;;;;;;;;;;;;;;;;5074511;28;20372;-55
2022/12/06 10:59:26;;;;;;;;;;;;;;;;;;5092526;28;19914;-50
2022/12/06 11:01:52;;;;;;;;;;;;;;;;;;5092300;28;20382;-50
2022/12/06 11:04:18;;;;;;;;;;;;;;;;;;5092621;28;19987;-51
2022/12/06 11:06:45;;;;;;;;;;;;;;;;;;5092619;28;19912;-52
2022/12/06 11:09:11;;;;;;;;;;;;;;;;;;5092555;28;19908;-51
2022/12/06 11:11:37;;;;;;;;;;;;;;;;;;5092351;28;19916;-52
2022/12/06 11:14:02;;;;;;;;;;;;;;;;;;5091846;28;19974;-52
2022/12/06 11:16:28;;;;;;;;;;;;;;;;;;5091277;28;20407;-51
2022/12/06 11:18:54;;;;;;;;;;;;;;;;;;5091748;28;19912;-51
2022/12/06 11:21:20;;;;;;;;;;;;;;;;;;5092028;28;19912;-50
2022/12/06 11:23:46;;;;;;;;;;;;;;;;;;5091927;28;19908;-52
2022/12/06 11:26:13;;;;;;;;;;;;;;;;;;5091837;28;19908;-51
2022/12/06 11:28:40;;;;;;;;;;;;;;;;;;5088528;28;19943;-51
2022/12/06 11:31:06;;;;;;;;;;;;;;;;;;5083940;28;19920;-50
2022/12/06 11:33:32;;;;;;;;;;;;;;;;;;5066901;28;19931;-53
2022/12/06 11:35:58;;;;;;;;;;;;;;;;;;5079984;28;19912;-55
2022/12/06 11:38:24;;;;;;;;;;;;;;;;;;5074818;28;19917;-52
2022/12/06 11:40:50;;;;;;;;;;;;;;;;;;5084597;28;19912;-52
2022/12/06 11:43:16;;;;;;;;;;;;;;;;;;5057968;28;19913;-52
2022/12/06 11:45:44;;;;;;;;;;;;;;;;;;5078131;28;19982;-51
2022/12/06 11:48:10;;;;;;;;;;;;;;;;;;5075907;28;19913;-52
2022/12/06 11:50:36;;;;;;;;;;;;;;;;;;5075870;28;19977;-51
2022/12/06 11:53:01;;;;;;;;;;;;;;;;;;5081470;28;20265;-51
2022/12/06 11:55:27;;;;;;;;;;;;;;;;;;5073655;28;19912;-52
2022/12/06 11:57:53;;;;;;;;;;;;;;;;;;5096167;28;19952;-50
2022/12/06 12:00:19;;;;;;;;;;;;;;;;;;5075319;28;20002;-51
2022/12/06 12:02:45;;;;;;;;;;;;;;;;;;5084335;28;19919;-54
2022/12/06 12:05:11;;;;;;;;;;;;;;;;;;5075761;28;19915;-53
2022/12/06 12:07:37;;;;;;;;;;;;;;;;;;5088213;28;19991;-53
2022/12/06 12:10:03;;;;;;;;;;;;;;;;;;5094189;28;19961;-53
2022/12/06 12:13:42;;;;;;;;;;;;;;;;;;5105120;22;19928;-48
2022/12/06 12:15:15;;;;;;;;;;;;;;;;;;5066326;28;19925;-47
2022/12/06 12:17:41;;;;;;;;;;;;;;;;;;5069911;28;20447;-48
2022/12/06 12:20:07;;;;;;;;;;;;;;;;;;5074164;28;19993;-48
2022/12/06 12:22:32;;;;;;;;;;;;;;;;;;5072161;28;20437;-48
2022/12/06 12:24:58;;;;;;;;;;;;;;;;;;5058005;28;20376;-48
2022/12/06 12:27:24;;;;;;;;;;;;;;;;;;5071668;28;20423;-48
2022/12/06 12:29:50;;;;;;;;;;;;;;;;;;5064005;28;19917;-48
2022/12/06 12:32:16;;;;;;;;;;;;;;;;;;5062831;28;19909;-47
2022/12/06 12:34:42;;;;;;;;;;;;;;;;;;5059643;28;19955;-48
2022/12/06 12:37:08;;;;;;;;;;;;;;;;;;5073214;28;20543;-48
2022/12/06 12:39:34;;;;;;;;;;;;;;;;;;5073137;28;19957;-48
2022/12/06 12:42:00;;;;;;;;;;;;;;;;;;5074802;28;19995;-48
2022/12/06 12:44:26;;;;;;;;;;;;;;;;;;5074860;28;20005;-47
2022/12/06 12:46:52;;;;;;;;;;;;;;;;;;5074553;28;19930;-48
2022/12/06 12:49:18;;;;;;;;;;;;;;;;;;5074638;28;20375;-47
2022/12/06 12:51:44;;;;;;;;;;;;;;;;;;5073282;28;19978;-47
2022/12/06 12:54:10;;;;;;;;;;;;;;;;;;5073916;28;19921;-47
2022/12/06 12:56:36;;;;;;;;;;;;;;;;;;5073809;28;19916;-47
2022/12/06 12:59:01;;;;;;;;;;;;;;;;;;5073263;28;19916;-51
2022/12/06 13:01:27;;;;;;;;;;;;;;;;;;5074467;28;19995;-51
2022/12/06 13:03:53;;;;;;;;;;;;;;;;;;5073881;28;19966;-47
2022/12/06 13:06:19;;;;;;;;;;;;;;;;;;5074693;28;19912;-47
2022/12/06 13:08:45;;;;;;;;;;;;;;;;;;5074457;28;19909;-50
2022/12/06 13:11:11;;;;;;;;;;;;;;;;;;5072940;28;20696;-50
2022/12/06 13:13:37;;;;;;;;;;;;;;;;;;5073281;28;19912;-51
2022/12/06 13:16:03;;;;;;;;;;;;;;;;;;5074313;28;19912;-48
2022/12/06 13:18:29;;;;;;;;;;;;;;;;;;5074044;28;19958;-48
2022/12/06 13:20:55;;;;;;;;;;;;;;;;;;5074431;28;19959;-48
2022/12/06 13:23:22;;;;;;;;;;;;;;;;;;5071900;28;19950;-48
2022/12/06 13:25:48;;;;;;;;;;;;;;;;;;5072371;28;20554;-48
2022/12/06 13:28:14;;;;;;;;;;;;;;;;;;5074277;28;19908;-47
2022/12/06 13:30:40;;;;;;;;;;;;;;;;;;5073910;28;19920;-48
2022/12/06 13:33:07;;;;;;;;;;;;;;;;;;5073939;28;19917;-48
2022/12/06 13:35:33;;;;;;;;;;;;;;;;;;5073940;28;20369;-47
2022/12/06 13:37:59;;;;;;;;;;;;;;;;;;5073881;28;19915;-50
2022/12/06 13:40:25;;;;;;;;;;;;;;;;;;5073800;28;19909;-48
2022/12/06 13:42:51;;;;;;;;;;;;;;;;;;5073457;28;19921;-48
2022/12/06 13:45:17;;;;;;;;;;;;;;;;;;5063678;28;20004;-47
2022/12/06 13:47:43;;;;;;;;;;;;;;;;;;5068664;28;20359;-48
2022/12/06 13:50:08;;;;;;;;;;;;;;;;;;5072159;28;19922;-51
2022/12/06 13:52:34;;;;;;;;;;;;;;;;;;5073669;28;20003;-49
2022/12/06 13:55:00;;;;;;;;;;;;;;;;;;5073620;28;19916;-48
2022/12/06 13:57:26;;;;;;;;;;;;;;;;;;5073709;28;19909;-51
2022/12/06 13:59:52;;;;;;;;;;;;;;;;;;5073595;28;19904;-49
2022/12/06 14:02:18;;;;;;;;;;;;;;;;;;5071876;28;19913;-48
2022/12/06 14:04:44;;;;;;;;;;;;;;;;;;5073399;28;19963;-48
2022/12/06 14:07:10;;;;;;;;;;;;;;;;;;5073434;28;19932;-47
2022/12/06 14:09:36;;;;;;;;;;;;;;;;;;5073032;28;20389;-47
2022/12/06 14:12:02;;;;;;;;;;;;;;;;;;5072469;28;20284;-51
2022/12/06 14:14:28;;;;;;;;;;;;;;;;;;5073187;28;19924;-47
2022/12/06 14:16:54;;;;;;;;;;;;;;;;;;5073054;28;19913;-47
2022/12/06 14:19:20;;;;;;;;;;;;;;;;;;5068519;28;19916;-48
2022/12/06 14:21:45;;;;;;;;;;;;;;;;;;5069995;28;19920;-48
2022/12/06 14:24:11;;;;;;;;;;;;;;;;;;5081180;28;20004;-48
2022/12/06 14:26:37;;;;;;;;;;;;;;;;;;5073007;28;19951;-47
2022/12/06 14:29:03;;;;;;;;;;;;;;;;;;5072874;28;20384;-47
2022/12/06 14:31:29;;;;;;;;;;;;;;;;;;5072834;28;19982;-48
2022/12/06 14:33:55;;;;;;;;;;;;;;;;;;5072820;28;20315;-48
2022/12/06 14:36:21;;;;;;;;;;;;;;;;;;5072650;28;19909;-48
2022/12/06 14:38:47;;;;;;;;;;;;;;;;;;5072721;28;20319;-47
2022/12/06 14:44:08;;;;;;;;;;;9.30;94.40;;;;;;5073049;28;19920;-48
2022/12/06 14:46:34;;;;;;;;;;;9.30;94.40;;;;;;5074551;28;19935;-49
2022/12/06 14:51:44;;;;;;;;;;;9.10;94.50;;;;;;5092486;28;19914;-48
2022/12/06 14:54:16;;;;;;;;;;;8.90;95.30;;;;;;5092498;28;20026;-48
2022/12/06 14:56:43;;;;;;;;;;;8.90;95.50;;;;;;5087012;28;20023;-49
2022/12/06 14:59:10;;;;;;;;;;;8.90;95.30;;;;;;5072153;28;20014;-48
2022/12/06 15:01:35;;;;;;;;;;;;;;;;;;5065776;28;19916;-48
2022/12/06 15:04:06;;;;;;;;;;;8.90;95.30;;;;;;5078838;28;20371;-48
2022/12/06 15:06:33;;;;;;;;;;;9.00;95.10;;;;;;5091292;28;19912;-49
2022/12/06 15:08:58;;;;;;;;;;;8.90;95.10;;;;;;5074744;28;19962;-48
2022/12/06 15:14:25;;;;;;;;;;;8.80;95.20;;;;;;5072102;28;20414;-48
2022/12/06 15:16:58;;;;;;;;;;;8.80;95.30;;;;;;5072057;28;20461;-48
2022/12/06 15:19:24;;;;;;;;;;;;;;;;;;5071363;28;20406;-48
2022/12/06 15:21:50;;;;;;;;;;;;;;;;;;5064148;28;19975;-48
2022/12/06 15:24:16;;;;;;;;;;;;;;;;;;5051174;28;19909;-49
2022/12/06 15:26:42;;;;;;;;;;;;;;;;;;5048885;28;19916;-48
2022/12/06 15:29:08;;;;;;;;;;;;;;;;;;5051858;28;19909;-49
2022/12/06 15:31:34;;;;;;;;;;;;;;;;;;5051936;28;20289;-47
2022/12/06 15:34:00;;;;;;;;;;;;;;;;;;5051935;28;19920;-48
2022/12/06 15:36:28;;;;;;;;;;;;;;;;;;5051996;28;19908;-48
2022/12/06 15:38:54;;;;;;;;;;;;;;;;;;5051732;28;19954;-48
2022/12/06 15:41:20;;;;;;;;;;;;;;;;;;5051981;28;19992;-48
2022/12/06 15:43:46;;;;;;;;;;;;;;;;;;5051995;28;20160;-49
2022/12/06 15:46:12;;;;;;;;;;;;;;;;;;5052291;28;20316;-48
2022/12/06 15:48:37;;;;;;;;;;;;;;;;;;5050357;28;19909;-48
2022/12/06 15:51:03;;;;;;;;;;;;;;;;;;5051749;28;20016;-48
2022/12/06 15:53:30;;;;;;;;;;;;;;;;;;5067136;28;19926;-48
2022/12/06 15:55:56;;;;;;;;;;;;;;;;;;5071078;28;19917;-49
2022/12/06 15:58:22;;;;;;;;;;;;;;;;;;5063989;28;20403;-50
2022/12/06 16:00:48;;;;;;;;;;;;;;;;;;5071205;28;20364;-49
2022/12/06 16:03:14;;;;;;;;;;;;;;;;;;5070637;28;19908;-48
2022/12/06 16:05:40;;;;;;;;;;;;;;;;;;5070066;28;19981;-48
2022/12/06 16:08:06;;;;;;;;;;;;;;;;;;5070536;28;19999;-49
2022/12/06 16:10:32;;;;;;;;;;;;;;;;;;5071506;28;20020;-49
2022/12/06 16:15:42;;;;;;;;;;;;;;;;;;5071784;28;19916;-48
2022/12/06 16:18:08;;;;;;;;;;;;;;;;;;5071510;28;19915;-47
2022/12/06 16:20:36;;;;;;;;;;;;;;;;;;5071639;28;20439;-49
2022/12/06 16:25:47;;;;;;;;;;;;;;;;;;5073516;28;20399;-48
2022/12/06 16:28:13;;;;;;;;;;;;;;;;;;5075350;28;19908;-49
2022/12/06 16:30:39;;;;;;;;;;;;;;;;;;5075370;28;20279;-47
2022/12/06 16:33:05;;;;;;;;;;;;;;;;;;5075105;28;19916;-48
2022/12/06 16:35:31;;;;;;;;;;;;;;;;;;5074698;28;19948;-48
2022/12/06 16:37:57;;;;;;;;;;;;;;;;;;5074263;28;20400;-48
2022/12/06 16:40:23;;;;;;;;;;;;;;;;;;5074918;28;19908;-48
2022/12/06 16:42:48;;;;;;;;;;;;;;;;;;5074911;28;19912;-48
2022/12/06 16:45:14;;;;;;;;;;;;;;;;;;5074967;28;19909;-49
2022/12/06 16:47:40;;;;;;;;;;;;;;;;;;5074738;28;19905;-48
2022/12/06 16:50:07;;;;;;;;;;;;;;;;;;5074810;28;20271;-49
2022/12/06 16:52:33;;;;;;;;;;;;;;;;;;5074932;28;19919;-49
2022/12/06 16:54:59;;;;;;;;;;;;;;;;;;5074713;28;20395;-49
2022/12/06 16:57:25;;;;;;;;;;;;;;;;;;5074817;28;19978;-48
2022/12/06 16:59:51;;;;;;;;;;;;;;;;;;5074647;28;19971;-48
2022/12/06 17:02:17;;;;;;;;;;;;;;;;;;5073241;28;20151;-48
2022/12/06 17:04:43;;;;;;;;;;;;;;;;;;5074569;28;19908;-49
2022/12/06 17:07:09;;;;;;;;;;;;;;;;;;5074747;28;20116;-48
2022/12/06 17:09:35;;;;;;;;;;;;;;;;;;5074414;28;19916;-48
2022/12/06 17:12:11;;;;;;;;;;;;;;;;;;5074332;28;19923;-48
2022/12/06 17:14:37;;;;;;;;;;;;;;;;;;5074395;28;19919;-52